createdAt,value
2019-04-26T00:00:27.051Z,15.60
2019-04-26T00:02:57.146Z,15.50
2019-04-26T00:05:34.273Z,15.50
2019-04-26T00:07:56.173Z,15.50
2019-04-26T00:10:26.430Z,15.40
2019-04-26T00:12:56.898Z,15.40
2019-04-26T00:15:43.438Z,15.30
2019-04-26T00:18:12.798Z,15.30
2019-04-26T00:20:41.372Z,15.30
2019-04-26T00:23:10.735Z,15.20
2019-04-26T00:25:39.721Z,15.20
2019-04-26T00:28:08.453Z,15.20
2019-04-26T00:30:36.885Z,15.20
2019-04-26T00:33:05.409Z,15.00
2019-04-26T00:35:46.546Z,15.10
2019-04-26T00:38:04.106Z,15.00
2019-04-26T00:40:35.286Z,15.10
2019-04-26T00:43:04.594Z,15.00
2019-04-26T00:45:35.790Z,15.00
2019-04-26T00:48:04.694Z,15.00
2019-04-26T00:50:33.690Z,15.00
2019-04-26T00:53:02.890Z,14.90
2019-04-26T00:55:34.137Z,14.90
2019-04-26T00:58:03.360Z,14.80
2019-04-26T01:00:32.061Z,14.80
2019-04-26T01:03:00.593Z,14.80
2019-04-26T01:05:31.840Z,14.80
2019-04-26T01:08:00.294Z,14.70
2019-04-26T01:10:28.774Z,14.70
2019-04-26T01:12:57.284Z,14.60
2019-04-26T01:15:26.631Z,14.60
2019-04-26T01:17:55.137Z,14.60
2019-04-26T01:20:25.397Z,14.60
2019-04-26T01:22:56.434Z,14.60
2019-04-26T01:25:46.442Z,14.60
2019-04-26T01:28:21.302Z,14.50
2019-04-26T01:30:50.695Z,14.50
2019-04-26T01:33:20.114Z,14.50
2019-04-26T01:35:48.865Z,14.50
2019-04-26T01:38:17.871Z,14.50
2019-04-26T01:40:47.966Z,14.50
2019-04-26T01:43:33.653Z,14.50
2019-04-26T01:46:06.392Z,14.60
2019-04-26T01:48:44.837Z,14.60
2019-04-26T01:51:16.354Z,14.50
2019-04-26T01:53:48.038Z,14.50
2019-04-26T01:56:19.122Z,14.60
2019-04-26T01:58:48.746Z,14.60
2019-04-26T02:01:22.718Z,14.60
2019-04-26T02:03:52.219Z,14.60
2019-04-26T02:06:28.826Z,14.50
2019-04-26T02:08:51.277Z,14.60
2019-04-26T02:11:19.814Z,14.50
2019-04-26T02:13:48.327Z,14.60
2019-04-26T02:16:16.807Z,14.50
2019-04-26T02:18:45.680Z,14.50
2019-04-26T02:21:16.515Z,14.50
2019-04-26T02:23:49.938Z,14.50
2019-04-26T02:26:34.870Z,14.50
2019-04-26T02:29:12.270Z,14.40
2019-04-26T02:31:43.150Z,14.30
2019-04-26T02:34:13.109Z,14.30
2019-04-26T02:36:55.818Z,14.30
2019-04-26T02:39:20.334Z,14.30
2019-04-26T02:41:51.625Z,14.30
2019-04-26T02:44:23.060Z,14.30
2019-04-26T02:47:11.060Z,14.30
2019-04-26T02:49:45.352Z,14.20
2019-04-26T02:52:25.556Z,14.20
2019-04-26T02:55:06.225Z,14.20
2019-04-26T02:57:43.775Z,14.10
2019-04-26T03:00:14.754Z,14.10
2019-04-26T03:02:46.509Z,13.90
2019-04-26T03:05:15.413Z,13.80
2019-04-26T03:07:53.064Z,13.70
2019-04-26T03:10:24.667Z,13.70
2019-04-26T03:12:56.335Z,13.60
2019-04-26T03:15:42.544Z,13.70
2019-04-26T03:18:34.618Z,13.90
2019-04-26T03:21:05.431Z,13.80
2019-04-26T03:23:55.633Z,13.70
2019-04-26T03:26:19.253Z,13.80
2019-04-26T03:29:07.274Z,13.70
2019-04-26T03:32:15.752Z,13.70
2019-04-26T03:34:57.501Z,13.50
2019-04-26T03:37:54.438Z,13.30
2019-04-26T03:40:48.140Z,13.10
2019-04-26T03:43:39.135Z,13.00
2019-04-26T03:46:19.123Z,13.00
2019-04-26T03:48:53.540Z,13.00
2019-04-26T03:51:25.193Z,13.10
2019-04-26T03:54:02.628Z,13.20
2019-04-26T03:56:36.622Z,13.20
2019-04-26T03:59:13.462Z,13.00
2019-04-26T04:01:55.232Z,12.90
2019-04-26T04:04:36.945Z,12.90
2019-04-26T04:07:07.554Z,12.90
2019-04-26T04:09:39.805Z,13.10
2019-04-26T04:12:24.573Z,13.30
2019-04-26T04:14:59.085Z,13.50
2019-04-26T04:17:32.299Z,13.50
2019-04-26T04:20:50.630Z,13.60
2019-04-26T04:23:30.788Z,13.60
2019-04-26T04:26:02.314Z,13.50
2019-04-26T04:28:49.902Z,13.50
2019-04-26T04:31:27.119Z,13.50
2019-04-26T04:34:10.747Z,13.40
2019-04-26T04:36:50.705Z,13.40
2019-04-26T04:39:23.973Z,13.40
2019-04-26T04:42:06.157Z,13.50
2019-04-26T04:45:18.484Z,13.50
2019-04-26T04:48:13.744Z,13.90
2019-04-26T04:50:48.739Z,14.00
2019-04-26T04:53:35.043Z,13.90
2019-04-26T04:56:21.094Z,14.00
2019-04-26T04:58:55.493Z,14.10
2019-04-26T05:02:06.707Z,14.00
2019-04-26T05:04:38.251Z,13.90
2019-04-26T05:07:20.293Z,14.00
2019-04-26T05:10:10.249Z,14.00
2019-04-26T05:12:56.601Z,14.10
2019-04-26T05:16:08.993Z,14.20
2019-04-26T05:18:58.706Z,14.30
2019-04-26T05:21:36.092Z,14.60
2019-04-26T05:24:13.449Z,14.90
2019-04-26T05:27:12.219Z,15.10
2019-04-26T05:30:21.676Z,15.30
2019-04-26T05:32:55.650Z,15.20
2019-04-26T05:35:49.165Z,15.10
2019-04-26T05:38:38.923Z,15.10
2019-04-26T05:41:34.807Z,15.10
2019-04-26T05:44:24.524Z,15.00
2019-04-26T05:47:03.420Z,15.10
2019-04-26T05:50:08.505Z,15.20
2019-04-26T05:53:07.239Z,15.20
2019-04-26T05:56:04.605Z,15.10
2019-04-26T05:58:36.176Z,15.20
2019-04-26T06:01:21.206Z,15.30
2019-04-26T06:04:06.400Z,15.50
2019-04-26T06:06:45.342Z,15.80
2019-04-26T06:09:30.649Z,16.40
2019-04-26T06:12:11.176Z,16.60
2019-04-26T06:14:51.425Z,16.80
2019-04-26T06:17:27.502Z,17.40
2019-04-26T06:20:22.303Z,17.80
2019-04-26T06:23:03.261Z,18.30
2019-04-26T06:25:45.101Z,18.60
2019-04-26T06:28:25.091Z,18.70
2019-04-26T06:30:59.811Z,18.60
2019-04-26T06:33:37.396Z,18.20
2019-04-26T06:36:09.595Z,17.70
2019-04-26T06:38:57.862Z,17.10
2019-04-26T06:41:59.401Z,16.60
2019-04-26T06:44:32.574Z,16.20
2019-04-26T06:47:24.554Z,16.00
2019-04-26T06:50:10.539Z,15.80
2019-04-26T06:52:45.041Z,15.60
2019-04-26T06:55:27.363Z,15.50
2019-04-26T06:58:27.115Z,15.50
2019-04-26T07:01:14.638Z,15.30
2019-04-26T07:04:13.624Z,15.20
2019-04-26T07:07:00.862Z,15.20
2019-04-26T07:09:50.849Z,15.30
2019-04-26T07:12:29.465Z,15.50
2019-04-26T07:15:34.331Z,15.70
2019-04-26T07:18:17.884Z,16.20
2019-04-26T07:20:53.610Z,16.30
2019-04-26T07:23:32.329Z,16.40
2019-04-26T07:26:18.674Z,17.00
2019-04-26T07:29:31.023Z,17.70
2019-04-26T07:32:05.328Z,17.50
2019-04-26T07:35:00.962Z,17.30
2019-04-26T07:37:55.171Z,17.10
2019-04-26T07:40:47.556Z,16.90
2019-04-26T07:43:29.607Z,16.70
2019-04-26T07:46:17.625Z,16.50
2019-04-26T07:49:10.173Z,16.40
2019-04-26T07:51:59.621Z,16.10
2019-04-26T07:55:04.938Z,16.10
2019-04-26T07:58:00.720Z,16.10
2019-04-26T08:00:49.219Z,16.10
2019-04-26T08:03:31.070Z,16.00
2019-04-26T08:06:06.059Z,16.20
2019-04-26T08:08:52.736Z,16.30
2019-04-26T08:11:24.341Z,16.50
2019-04-26T08:14:08.573Z,17.00
2019-04-26T08:16:41.928Z,17.40
2019-04-26T08:19:14.693Z,18.50
2019-04-26T08:21:49.079Z,21.20
2019-04-26T08:24:22.413Z,22.80
2019-04-26T08:27:13.606Z,22.80
2019-04-26T08:29:39.409Z,23.00
2019-04-26T08:32:13.265Z,22.30
2019-04-26T08:34:44.996Z,21.40
2019-04-26T08:37:23.527Z,20.50
2019-04-26T08:39:53.626Z,19.90
2019-04-26T08:42:25.146Z,19.50
2019-04-26T08:44:56.413Z,19.70
2019-04-26T08:47:39.703Z,21.20
2019-04-26T08:50:13.663Z,22.90
2019-04-26T08:52:44.891Z,23.20
2019-04-26T08:55:16.684Z,23.20
2019-04-26T08:57:48.624Z,23.80
2019-04-26T09:00:39.247Z,25.00
2019-04-26T09:03:12.506Z,26.50
2019-04-26T09:05:49.975Z,27.60
2019-04-26T09:08:20.560Z,27.60
2019-04-26T09:10:51.821Z,28.40
2019-04-26T09:13:23.348Z,29.60
2019-04-26T09:16:06.738Z,29.60
2019-04-26T09:18:43.231Z,29.00
2019-04-26T09:21:05.603Z,29.10
2019-04-26T09:23:40.307Z,29.20
2019-04-26T09:26:12.458Z,28.40
2019-04-26T09:28:58.823Z,28.10
2019-04-26T09:31:31.969Z,28.20
2019-04-26T09:34:02.239Z,28.20
2019-04-26T09:36:30.740Z,27.30
2019-04-26T09:38:59.190Z,26.20
2019-04-26T09:41:30.784Z,25.50
2019-04-26T09:44:02.590Z,25.00
2019-04-26T09:46:52.770Z,25.70
2019-04-26T09:49:23.475Z,26.50
2019-04-26T09:51:52.142Z,26.60
2019-04-26T09:54:20.610Z,26.80
2019-04-26T09:56:49.064Z,26.80
2019-04-26T09:59:17.528Z,27.00
2019-04-26T10:01:45.995Z,27.30
2019-04-26T10:04:14.448Z,27.90
2019-04-26T10:06:43.271Z,28.70
2019-04-26T10:09:17.235Z,29.60
2019-04-26T10:11:46.829Z,30.20
2019-04-26T10:14:19.973Z,30.00
2019-04-26T10:17:05.265Z,30.40
2019-04-26T10:19:35.370Z,30.10
2019-04-26T10:22:03.843Z,28.70
2019-04-26T10:24:32.313Z,28.70
2019-04-26T10:27:03.384Z,28.80
2019-04-26T10:29:31.043Z,28.10
2019-04-26T10:31:59.684Z,27.80
2019-04-26T10:34:28.172Z,28.50
2019-04-26T10:36:57.035Z,27.80
2019-04-26T10:39:28.533Z,26.90
2019-04-26T10:41:56.150Z,26.10
2019-04-26T10:44:24.700Z,25.20
2019-04-26T10:46:55.579Z,24.60
2019-04-26T10:49:38.375Z,25.00
2019-04-26T10:52:12.029Z,24.70
2019-04-26T10:54:46.127Z,24.50
2019-04-26T10:57:22.256Z,24.60
2019-04-26T10:59:52.348Z,24.50
2019-04-26T11:02:20.895Z,24.90
2019-04-26T11:04:49.351Z,25.10
2019-04-26T11:07:17.938Z,25.20
2019-04-26T11:09:46.459Z,26.00
2019-04-26T11:12:16.333Z,26.50
2019-04-26T11:14:44.969Z,26.00
2019-04-26T11:17:17.795Z,25.50
2019-04-26T11:19:46.401Z,25.60
2019-04-26T11:22:28.613Z,25.90
2019-04-26T11:24:53.916Z,25.90
2019-04-26T11:27:21.451Z,25.80
2019-04-26T11:29:53.949Z,25.30
2019-04-26T11:32:20.623Z,24.90
2019-04-26T11:34:49.167Z,24.40
2019-04-26T11:39:47.868Z,23.40
2019-04-26T11:40:14.098Z,23.70
2019-04-26T11:42:16.410Z,22.70
2019-04-26T11:44:44.952Z,22.20
2019-04-26T11:47:13.436Z,21.70
2019-04-26T11:49:43.010Z,21.50
2019-04-26T11:52:11.634Z,21.50
2019-04-26T11:54:40.097Z,21.60
2019-04-26T11:57:12.033Z,21.90
2019-04-26T11:59:38.737Z,21.80
2019-04-26T12:02:07.289Z,21.40
2019-04-26T12:04:37.381Z,21.30
2019-04-26T12:07:10.439Z,21.60
2019-04-26T12:09:40.564Z,21.80
2019-04-26T12:12:12.545Z,22.00
2019-04-26T12:14:39.252Z,22.00
2019-04-26T12:17:07.734Z,22.10
2019-04-26T12:19:36.249Z,21.90
2019-04-26T12:22:08.455Z,21.60
2019-04-26T12:24:35.150Z,21.40
2019-04-26T12:27:03.682Z,21.40
2019-04-26T12:29:32.163Z,21.40
2019-04-26T12:32:00.621Z,21.20
2019-04-26T12:34:29.103Z,20.80
2019-04-26T12:36:57.623Z,20.40
2019-04-26T12:39:32.361Z,20.30
2019-04-26T12:41:59.352Z,20.50
2019-04-26T12:44:32.176Z,20.70
2019-04-26T12:47:10.551Z,20.80
2019-04-26T12:49:39.012Z,20.50
2019-04-26T12:52:07.451Z,20.10
2019-04-26T12:54:39.059Z,20.10
2019-04-26T12:57:07.038Z,20.30
2019-04-26T12:59:44.129Z,20.50
2019-04-26T13:02:06.247Z,20.70
2019-04-26T13:04:36.152Z,21.10
2019-04-26T13:07:08.578Z,20.80
2019-04-26T13:09:38.986Z,20.80
2019-04-26T13:12:11.963Z,20.80
2019-04-26T13:14:54.079Z,20.70
2019-04-26T13:17:35.626Z,20.30
2019-04-26T13:20:06.560Z,20.10
2019-04-26T13:22:45.293Z,20.10
2019-04-26T13:25:15.386Z,20.40
2019-04-26T13:27:36.872Z,20.40
2019-04-26T13:30:10.518Z,20.60
2019-04-26T13:32:38.400Z,20.90
2019-04-26T13:35:07.111Z,21.00
2019-04-26T13:37:37.125Z,21.10
2019-04-26T13:40:07.212Z,21.20
2019-04-26T13:42:35.661Z,21.20
2019-04-26T13:45:09.670Z,21.10
2019-04-26T13:47:43.017Z,20.80
2019-04-26T13:50:15.915Z,20.50
2019-04-26T13:52:44.458Z,20.30
2019-04-26T13:55:13.266Z,20.00
2019-04-26T13:57:44.629Z,19.90
2019-04-26T14:00:14.283Z,19.70
2019-04-26T14:02:42.746Z,19.70
2019-04-26T14:05:15.200Z,19.70
2019-04-26T14:07:42.020Z,19.90
2019-04-26T14:10:10.814Z,19.80
2019-04-26T14:12:39.324Z,20.00
2019-04-26T14:15:08.845Z,20.20
2019-04-26T14:17:38.267Z,19.90
2019-04-26T14:20:06.780Z,20.00
2019-04-26T14:22:40.957Z,19.70
2019-04-26T14:25:11.453Z,19.60
2019-04-26T14:27:53.395Z,19.60
2019-04-26T14:30:22.109Z,19.50
2019-04-26T14:32:53.171Z,19.50
2019-04-26T14:35:20.979Z,19.30
2019-04-26T14:37:49.777Z,19.00
2019-04-26T14:40:19.697Z,19.10
2019-04-26T14:42:48.889Z,18.90
2019-04-26T14:45:23.833Z,19.00
2019-04-26T14:47:49.265Z,18.90
2019-04-26T14:50:17.723Z,18.90
2019-04-26T14:52:46.242Z,18.70
2019-04-26T14:55:16.480Z,18.90
2019-04-26T14:57:46.876Z,18.80
2019-04-26T15:00:16.688Z,18.60
2019-04-26T15:02:56.485Z,18.40
2019-04-26T15:05:33.571Z,18.20
2019-04-26T15:08:03.928Z,18.20
2019-04-26T15:10:44.014Z,18.20
2019-04-26T15:13:16.996Z,18.10
2019-04-26T15:15:36.674Z,18.20
2019-04-26T15:18:05.299Z,18.20
2019-04-26T15:20:33.748Z,18.20
2019-04-26T15:23:03.143Z,18.30
2019-04-26T15:25:31.785Z,18.30
2019-04-26T15:28:02.474Z,18.40
2019-04-26T15:30:34.266Z,18.40
2019-04-26T15:33:03.095Z,18.50
2019-04-26T15:35:32.648Z,18.40
2019-04-26T15:38:02.472Z,18.20
2019-04-26T15:40:47.819Z,18.20
2019-04-26T15:43:29.842Z,18.20
2019-04-26T15:46:13.350Z,18.20
2019-04-26T15:48:54.663Z,18.20
2019-04-26T15:51:27.476Z,18.00
2019-04-26T15:53:54.981Z,17.50
2019-04-26T15:56:23.443Z,17.30
2019-04-26T15:58:52.339Z,17.10
2019-04-26T16:01:21.037Z,16.90
2019-04-26T16:03:49.494Z,16.90
2019-04-26T16:06:17.947Z,16.90
2019-04-26T16:08:46.481Z,16.90
2019-04-26T16:11:14.954Z,16.70
2019-04-26T16:13:45.160Z,16.60
2019-04-26T16:16:16.392Z,16.50
2019-04-26T16:18:43.887Z,16.40
2019-04-26T16:21:17.900Z,16.30
2019-04-26T16:23:51.119Z,16.20
2019-04-26T16:26:15.289Z,16.20
2019-04-26T16:28:50.449Z,16.20
2019-04-26T16:31:35.691Z,16.10
2019-04-26T16:34:10.629Z,16.00
2019-04-26T16:36:42.204Z,16.10
2019-04-26T16:39:13.058Z,16.10
2019-04-26T16:41:42.156Z,15.90
2019-04-26T16:44:10.806Z,15.90
2019-04-26T16:46:39.422Z,15.90
2019-04-26T16:49:11.686Z,15.90
2019-04-26T16:51:38.192Z,15.90
2019-04-26T16:54:10.825Z,15.90
2019-04-26T16:56:37.727Z,15.90
2019-04-26T16:59:06.279Z,15.90
2019-04-26T17:01:38.132Z,15.90
2019-04-26T17:04:10.952Z,15.90
2019-04-26T17:06:35.206Z,15.90
2019-04-26T17:09:05.667Z,15.90
2019-04-26T17:11:37.855Z,15.90
2019-04-26T17:14:09.970Z,15.90
2019-04-26T17:16:38.152Z,15.80
2019-04-26T17:19:05.235Z,15.90
2019-04-26T17:21:35.414Z,15.90
2019-04-26T17:24:23.605Z,15.90
2019-04-26T17:26:53.715Z,15.90
2019-04-26T17:29:22.171Z,15.90
2019-04-26T17:31:52.142Z,15.90
2019-04-26T17:34:28.374Z,15.80
2019-04-26T17:36:52.246Z,15.60
2019-04-26T17:39:22.306Z,15.50
2019-04-26T17:41:54.266Z,15.50
2019-04-26T17:44:26.682Z,15.50
2019-04-26T17:46:56.264Z,15.50
2019-04-26T17:49:27.408Z,15.20
2019-04-26T17:51:57.845Z,15.10
2019-04-26T17:54:41.624Z,15.20
2019-04-26T17:56:52.228Z,15.30
2019-04-26T17:59:31.376Z,15.20
2019-04-26T18:01:59.873Z,15.10
2019-04-26T18:04:32.467Z,15.00
2019-04-26T18:06:57.712Z,14.80
2019-04-26T18:09:40.426Z,14.80
2019-04-26T18:11:55.337Z,14.70
2019-04-26T18:14:29.572Z,14.70
2019-04-26T18:16:57.136Z,14.50
2019-04-26T18:19:30.288Z,14.40
2019-04-26T18:21:59.914Z,14.50
2019-04-26T18:24:32.177Z,14.50
2019-04-26T18:26:59.415Z,14.50
2019-04-26T18:29:29.426Z,14.40
2019-04-26T18:32:02.890Z,14.30
2019-04-26T18:34:30.508Z,14.30
2019-04-26T18:37:02.008Z,14.20
2019-04-26T18:39:29.818Z,14.20
2019-04-26T18:42:02.404Z,14.00
2019-04-26T18:44:36.974Z,14.10
2019-04-26T18:47:00.439Z,14.00
2019-04-26T18:49:28.906Z,14.00
2019-04-26T18:51:57.373Z,14.00
2019-04-26T18:54:27.516Z,14.00
2019-04-26T18:56:57.623Z,14.00
2019-04-26T18:59:27.859Z,14.10
2019-04-26T19:01:56.302Z,14.00
2019-04-26T19:04:24.848Z,14.00
2019-04-26T19:06:53.432Z,14.00
2019-04-26T19:09:24.734Z,14.00
2019-04-26T19:11:55.980Z,14.00
2019-04-26T19:14:49.214Z,14.00
2019-04-26T19:17:30.176Z,13.90
2019-04-26T19:20:06.879Z,13.80
2019-04-26T19:22:35.376Z,13.70
2019-04-26T19:25:04.829Z,13.60
2019-04-26T19:27:33.352Z,13.60
2019-04-26T19:30:08.993Z,13.60
2019-04-26T19:32:35.501Z,13.50
2019-04-26T19:35:07.457Z,13.40
2019-04-26T19:37:37.085Z,13.40
2019-04-26T19:40:09.094Z,13.30
2019-04-26T19:42:37.583Z,13.20
2019-04-26T19:45:17.098Z,13.10
2019-04-26T19:47:44.126Z,13.00
2019-04-26T19:50:14.494Z,12.90
2019-04-26T19:52:49.375Z,12.90
2019-04-26T19:55:36.207Z,12.90
2019-04-26T19:58:16.676Z,12.80
2019-04-26T20:00:45.181Z,12.90
2019-04-26T20:03:16.516Z,12.90
2019-04-26T20:05:44.080Z,12.90
2019-04-26T20:08:12.886Z,13.00
2019-04-26T20:10:45.372Z,13.00
2019-04-26T20:13:15.063Z,13.00
2019-04-26T20:15:42.323Z,13.00
2019-04-26T20:18:12.251Z,13.00
2019-04-26T20:20:41.429Z,12.90
2019-04-26T20:23:10.261Z,12.80
2019-04-26T20:25:38.694Z,12.80
2019-04-26T20:28:07.149Z,12.90
2019-04-26T20:30:57.876Z,12.90
2019-04-26T20:33:26.630Z,12.90
2019-04-26T20:35:57.419Z,12.90
2019-04-26T20:38:24.398Z,12.90
2019-04-26T20:40:53.481Z,12.90
2019-04-26T20:43:26.383Z,13.00
2019-04-26T20:46:10.517Z,12.90
2019-04-26T20:48:25.671Z,12.70
2019-04-26T20:50:55.327Z,12.80
2019-04-26T20:53:22.820Z,12.80
2019-04-26T20:55:52.834Z,12.90
2019-04-26T20:58:21.573Z,12.90
2019-04-26T21:00:54.594Z,12.90
2019-04-26T21:03:24.810Z,12.90
2019-04-26T21:05:58.853Z,12.90
2019-04-26T21:08:25.705Z,13.00
2019-04-26T21:10:52.086Z,12.90
2019-04-26T21:13:23.663Z,12.90
2019-04-26T21:15:57.985Z,12.80
2019-04-26T21:18:22.965Z,12.80
2019-04-26T21:20:52.156Z,12.70
2019-04-26T21:23:22.270Z,12.70
2019-04-26T21:25:52.559Z,12.80
2019-04-26T21:28:22.642Z,12.80
2019-04-26T21:30:52.810Z,12.80
2019-04-26T21:33:23.991Z,12.80
2019-04-26T21:35:57.572Z,12.70
2019-04-26T21:38:33.349Z,12.70
2019-04-26T21:41:10.996Z,12.60
2019-04-26T21:43:38.072Z,12.50
2019-04-26T21:46:08.602Z,12.50
2019-04-26T21:48:37.366Z,12.50
2019-04-26T21:51:08.542Z,12.50
2019-04-26T21:53:38.213Z,12.50
2019-04-26T21:56:11.654Z,12.50
2019-04-26T21:58:37.881Z,12.40
2019-04-26T22:01:15.009Z,12.40
2019-04-26T22:03:47.404Z,12.40
2019-04-26T22:06:11.420Z,12.40
2019-04-26T22:08:41.510Z,12.40
2019-04-26T22:11:13.926Z,12.40
2019-04-26T22:13:43.215Z,12.30
2019-04-26T22:16:34.274Z,12.30
2019-04-26T22:19:14.589Z,12.30
2019-04-26T22:21:47.551Z,12.20
2019-04-26T22:24:20.720Z,12.20
2019-04-26T22:26:49.173Z,12.10
2019-04-26T22:29:17.618Z,12.10
2019-04-26T22:31:46.283Z,12.00
2019-04-26T22:34:14.793Z,12.00
2019-04-26T22:36:43.886Z,12.00
2019-04-26T22:39:17.617Z,12.00
2019-04-26T22:41:46.140Z,12.00
2019-04-26T22:44:19.407Z,12.00
2019-04-26T22:46:58.843Z,12.00
2019-04-26T22:49:25.563Z,12.00
2019-04-26T22:51:54.001Z,11.90
2019-04-26T22:54:23.095Z,11.90
2019-04-26T22:56:53.817Z,11.80
2019-04-26T22:59:22.931Z,11.80
2019-04-26T23:01:53.420Z,11.70
2019-04-26T23:04:23.515Z,11.70
2019-04-26T23:06:54.241Z,11.80
2019-04-26T23:09:23.302Z,11.80
2019-04-26T23:11:56.489Z,11.80
2019-04-26T23:14:43.747Z,11.70
2019-04-26T23:17:27.231Z,11.60
2019-04-26T23:20:00.658Z,11.60
2019-04-26T23:22:30.984Z,11.60
2019-04-26T23:24:59.373Z,11.50
2019-04-26T23:27:27.811Z,11.60
2019-04-26T23:29:58.328Z,11.60
2019-04-26T23:32:26.495Z,11.60
2019-04-26T23:34:58.244Z,11.50
2019-04-26T23:37:27.671Z,11.50
2019-04-26T23:39:55.337Z,11.60
2019-04-26T23:42:25.077Z,11.60
2019-04-26T23:44:53.715Z,11.60
2019-04-26T23:47:23.701Z,11.50
2019-04-26T23:49:53.831Z,11.60
2019-04-26T23:52:23.043Z,11.60
2019-04-26T23:54:52.987Z,11.60
2019-04-26T23:57:21.574Z,11.50
2019-04-26T23:59:51.201Z,11.50
